Welcome to Northern Hawkes Bay. New Zealand.
PWS Header
      nz Flag



Hit Counter


W3C Valid W3C Valid logo


    Wairoa

Select any of the Stations below to visit their websites.










Historic Data from Weather Underground
Select the location of interest below. Wairoa is the default. Please have patience, this Data is slow to load in.
Northern Hawkes Bay Historical Data
Daily Summary for June 16, 2017 Units:  Metric    English   Both
« Previous Day
Next Day »
Daily Weekly Monthly Yearly Custom
  High: Low: Average:
Temperature: 15.4 °C 2.3 °C 8.5 °C
Dew Point: 11.2 °C 1.8 °C 6.9 °C
Humidity: 99% 70% 91%
Wind Speed: 14.8km/h 0.0km/h 6.3km/h
Wind Gust: 27.0km/h - -
Wind- - WNW
Pressure: 1026.6 hPa 1018.2 hPa -
Precipitation: 0.3 mm    
Historical Graphs
 
 
Tabular Data for June 16, 2017
Time Temperature Dew Point Pressure Wind Wind Speed Wind Gust Humidity Rainfall Rate (Hourly) solar
00:04 4.1 °C 3.7 °C 1018.8 hPa NW 3.5 km/h 11.1 km/h 97% 0.0 mm 0 W/m2
00:09 4.0 °C 3.6 °C 1018.5 hPa NW 5.0 km/h 11.1 km/h 97% 0.0 mm 0 W/m2
00:14 4.1 °C 3.7 °C 1018.8 hPa NW 7.2 km/h 9.7 km/h 97% 0.0 mm 0 W/m2
00:19 4.1 °C 3.7 °C 1018.8 hPa NNW 8.7 km/h 14.8 km/h 97% 0.0 mm 0 W/m2
00:24 4.1 °C 3.5 °C 1018.8 hPa NW 9.7 km/h 14.8 km/h 96% 0.0 mm 0 W/m2
00:29 4.0 °C 3.4 °C 1018.8 hPa NW 8.7 km/h 13.4 km/h 96% 0.0 mm 0 W/m2
00:34 3.8 °C 3.4 °C 1018.5 hPa NW 7.2 km/h 12.2 km/h 97% 0.0 mm 0 W/m2
00:39 3.7 °C 3.3 °C 1018.5 hPa NW 8.7 km/h 12.2 km/h 97% 0.0 mm 0 W/m2
00:44 3.7 °C 3.4 °C 1018.5 hPa NNW 8.7 km/h 12.2 km/h 98% 0.0 mm 0 W/m2
00:49 3.7 °C 3.4 °C 1018.5 hPa NNW 8.7 km/h 13.4 km/h 98% 0.0 mm 0 W/m2
00:54 3.6 °C 3.3 °C 1018.5 hPa NNW 7.2 km/h 13.4 km/h 98% 0.0 mm 0 W/m2
00:59 3.5 °C 3.2 °C 1018.2 hPa NNW 8.7 km/h 13.4 km/h 98% 0.0 mm 0 W/m2
01:04 3.4 °C 3.1 °C 1018.2 hPa NNW 8.7 km/h 12.2 km/h 98% 0.0 mm 0 W/m2
01:09 3.5 °C 3.2 °C 1018.2 hPa NNW 7.2 km/h 12.2 km/h 98% 0.0 mm 0 W/m2
01:14 3.4 °C 3.3 °C 1018.2 hPa NNW 9.7 km/h 12.2 km/h 99% 0.0 mm 0 W/m2
01:19 3.4 °C 3.3 °C 1018.2 hPa NW 7.2 km/h 12.2 km/h 99% 0.0 mm 0 W/m2
01:24 3.4 °C 3.3 °C 1018.2 hPa NNW 7.2 km/h 12.2 km/h 99% 0.0 mm 0 W/m2
01:29 3.4 °C 3.3 °C 1018.2 hPa NW 7.2 km/h 12.2 km/h 99% 0.0 mm 0 W/m2
01:34 3.4 °C 3.3 °C 1018.5 hPa NW 8.7 km/h 12.2 km/h 99% 0.0 mm 0 W/m2
01:39 3.4 °C 3.3 °C 1018.5 hPa NW 8.7 km/h 11.1 km/h 99% 0.0 mm 0 W/m2
01:44 3.4 °C 3.3 °C 1018.2 hPa NW 7.2 km/h 12.2 km/h 99% 0.0 mm 0 W/m2
01:49 3.5 °C 3.3 °C 1018.5 hPa NNW 6.1 km/h 12.2 km/h 99% 0.0 mm 0 W/m2
02:05 3.4 °C 3.3 °C 1018.5 hPa NW 8.7 km/h 11.1 km/h 99% 0.0 mm 0 W/m2
02:10 3.4 °C 3.3 °C 1018.5 hPa NW 6.1 km/h 12.2 km/h 99% 0.0 mm 0 W/m2
02:15 3.4 °C 3.3 °C 1018.5 hPa NW 7.2 km/h 12.2 km/h 99% 0.0 mm 0 W/m2
02:20 3.3 °C 3.2 °C 1018.8 hPa NW 7.2 km/h 11.1 km/h 99% 0.0 mm 0 W/m2
02:25 3.2 °C 3.1 °C 1018.8 hPa NW 7.2 km/h 11.1 km/h 99% 0.0 mm 0 W/m2
02:45 3.0 °C 2.8 °C 1018.5 hPa NNW 8.7 km/h 13.4 km/h 99% 0.0 mm 0 W/m2
02:50 3.1 °C 2.9 °C 1018.8 hPa NW 8.7 km/h 14.8 km/h 99% 0.0 mm 0 W/m2
02:56 3.1 °C 2.9 °C 1018.8 hPa NW 9.7 km/h 14.8 km/h 99% 0.0 mm 0 W/m2
03:01 3.1 °C 2.9 °C 1018.8 hPa NNW 8.7 km/h 12.2 km/h 99% 0.0 mm 0 W/m2
03:06 3.2 °C 3.1 °C 1018.8 hPa NNW 7.2 km/h 13.4 km/h 99% 0.0 mm 0 W/m2
03:11 3.3 °C 3.2 °C 1018.8 hPa NNW 7.2 km/h 13.4 km/h 99% 0.0 mm 0 W/m2
03:16 3.3 °C 3.2 °C 1018.5 hPa NNW 7.2 km/h 12.2 km/h 99% 0.0 mm 0 W/m2
03:21 3.2 °C 3.1 °C 1018.5 hPa NW 7.2 km/h 12.2 km/h 99% 0.0 mm 0 W/m2
03:26 3.2 °C 3.1 °C 1018.8 hPa NW 8.7 km/h 13.4 km/h 99% 0.0 mm 0 W/m2
03:31 3.1 °C 2.9 °C 1018.5 hPa NW 7.2 km/h 13.4 km/h 99% 0.0 mm 0 W/m2
03:36 3.1 °C 2.9 °C 1018.8 hPa NW 7.2 km/h 12.2 km/h 99% 0.0 mm 0 W/m2
03:41 3.1 °C 2.9 °C 1018.8 hPa NNW 9.7 km/h 13.4 km/h 99% 0.0 mm 0 W/m2
03:46 3.0 °C 2.8 °C 1018.8 hPa NNW 9.7 km/h 14.8 km/h 99% 0.0 mm 0 W/m2
03:51 2.9 °C 2.2 °C 1018.5 hPa NW 8.7 km/h 14.8 km/h 95% 0.0 mm 0 W/m2
03:53 2.9 °C 2.2 °C 1018.8 hPa NW 8.7 km/h 13.4 km/h 95% 0.0 mm 0 W/m2
03:58 2.8 °C 2.1 °C 1018.5 hPa NW 7.2 km/h 13.4 km/h 95% 0.0 mm 0 W/m2
04:03 2.7 °C 2.0 °C 1018.8 hPa NNW 8.7 km/h 13.4 km/h 95% 0.0 mm 0 W/m2
04:08 2.6 °C 2.1 °C 1018.8 hPa NNW 7.2 km/h 13.4 km/h 96% 0.0 mm 0 W/m2
04:13 2.6 °C 2.1 °C 1018.8 hPa NW 6.1 km/h 12.2 km/h 96% 0.0 mm 0 W/m2
04:18 2.6 °C 2.1 °C 1018.8 hPa NNW 7.2 km/h 12.2 km/h 96% 0.0 mm 0 W/m2
04:23 2.5 °C 1.9 °C 1018.8 hPa NNW 6.1 km/h 12.2 km/h 96% 0.0 mm 0 W/m2
04:28 2.5 °C 1.9 °C 1018.8 hPa NNW 7.2 km/h 12.2 km/h 96% 0.0 mm 0 W/m2
04:33 2.5 °C 2.1 °C 1018.8 hPa NNW 6.1 km/h 12.2 km/h 97% 0.0 mm 0 W/m2
04:38 2.5 °C 2.1 °C 1018.8 hPa NNW 11.1 km/h 14.8 km/h 97% 0.0 mm 0 W/m2
04:43 2.5 °C 2.1 °C 1018.8 hPa NNW 8.7 km/h 14.8 km/h 97% 0.0 mm 0 W/m2
04:48 2.5 °C 2.1 °C 1018.8 hPa NW 9.7 km/h 14.8 km/h 97% 0.0 mm 0 W/m2
04:53 2.5 °C 2.1 °C 1018.8 hPa NW 11.1 km/h 15.8 km/h 97% 0.0 mm 0 W/m2
04:58 2.5 °C 2.1 °C 1018.8 hPa NW 9.7 km/h 15.8 km/h 97% 0.0 mm 0 W/m2
05:03 2.5 °C 2.1 °C 1018.8 hPa NW 12.2 km/h 15.8 km/h 97% 0.0 mm 0 W/m2
05:08 2.5 °C 2.1 °C 1018.8 hPa NW 8.7 km/h 14.8 km/h 97% 0.0 mm 0 W/m2
05:13 2.5 °C 2.1 °C 1018.8 hPa NW 9.7 km/h 15.8 km/h 97% 0.0 mm 0 W/m2
05:18 2.5 °C 2.1 °C 1018.8 hPa NW 8.7 km/h 15.8 km/h 97% 0.0 mm 0 W/m2
05:23 2.5 °C 2.1 °C 1018.8 hPa NW 8.7 km/h 14.8 km/h 97% 0.0 mm 0 W/m2
05:28 2.6 °C 2.2 °C 1019.2 hPa NW 9.7 km/h 18.3 km/h 97% 0.0 mm 0 W/m2
05:33 2.7 °C 2.3 °C 1019.2 hPa NW 9.7 km/h 18.3 km/h 97% 0.0 mm 0 W/m2
05:38 2.6 °C 2.2 °C 1019.2 hPa NW 9.7 km/h 18.3 km/h 97% 0.0 mm 0 W/m2
05:43 2.7 °C 2.3 °C 1019.2 hPa NW 9.7 km/h 15.8 km/h 97% 0.0 mm 0 W/m2
05:48 2.6 °C 2.2 °C 1019.2 hPa NW 9.7 km/h 15.8 km/h 97% 0.0 mm 0 W/m2
05:53 2.6 °C 2.2 °C 1019.2 hPa NW 12.2 km/h 15.8 km/h 97% 0.0 mm 0 W/m2
05:58 2.6 °C 2.2 °C 1019.2 hPa NW 8.7 km/h 15.8 km/h 97% 0.0 mm 0 W/m2
06:03 2.6 °C 2.2 °C 1019.5 hPa NW 9.7 km/h 15.8 km/h 97% 0.0 mm 0 W/m2
06:08 2.6 °C 2.2 °C 1019.5 hPa NW 9.7 km/h 15.8 km/h 97% 0.0 mm 0 W/m2
06:13 2.6 °C 2.2 °C 1019.5 hPa NW 8.7 km/h 14.8 km/h 97% 0.0 mm 0 W/m2
06:18 2.6 °C 2.2 °C 1019.5 hPa NW 8.7 km/h 13.4 km/h 97% 0.0 mm 0 W/m2
06:23 2.6 °C 2.2 °C 1019.5 hPa NW 7.2 km/h 13.4 km/h 97% 0.0 mm 0 W/m2
06:28 2.6 °C 2.2 °C 1019.5 hPa NW 7.2 km/h 12.2 km/h 97% 0.0 mm 0 W/m2
06:33 2.5 °C 2.1 °C 1019.5 hPa NW 7.2 km/h 12.2 km/h 97% 0.0 mm 0 W/m2
06:38 2.5 °C 2.1 °C 1019.9 hPa NW 8.7 km/h 13.4 km/h 97% 0.0 mm 0 W/m2
06:43 2.5 °C 2.1 °C 1019.9 hPa NW 7.2 km/h 13.4 km/h 97% 0.0 mm 0 W/m2
06:48 2.6 °C 2.2 °C 1019.9 hPa NW 11.1 km/h 15.8 km/h 97% 0.0 mm 0 W/m2
06:53 2.5 °C 2.1 °C 1019.9 hPa NW 8.7 km/h 15.8 km/h 97% 0.0 mm 0 W/m2
06:58 2.5 °C 2.1 °C 1020.2 hPa NNW 9.7 km/h 14.8 km/h 97% 0.0 mm 0 W/m2
07:03 2.4 °C 1.8 °C 1019.9 hPa NNW 8.7 km/h 14.8 km/h 96% 0.0 mm 0 W/m2
07:08 2.3 °C 1.9 °C 1020.2 hPa NW 7.2 km/h 15.8 km/h 97% 0.0 mm 0 W/m2
07:13 2.3 °C 1.9 °C 1020.5 hPa NW 7.2 km/h 15.8 km/h 97% 0.0 mm 0 W/m2
07:18 2.3 °C 1.9 °C 1020.5 hPa NW 9.7 km/h 13.4 km/h 97% 0.0 mm 0 W/m2
07:23 2.3 °C 1.9 °C 1020.9 hPa NNW 7.2 km/h 13.4 km/h 97% 0.0 mm 0 W/m2
07:28 2.3 °C 1.9 °C 1020.5 hPa NNW 9.7 km/h 13.4 km/h 97% 0.0 mm 0 W/m2
07:33 2.3 °C 1.9 °C 1020.5 hPa NNW 8.7 km/h 13.4 km/h 97% 0.0 mm 2 W/m2
07:38 2.3 °C 1.9 °C 1020.9 hPa NNW 8.7 km/h 13.4 km/h 97% 0.0 mm 5 W/m2
07:43 2.5 °C 2.1 °C 1020.9 hPa NNW 9.7 km/h 14.8 km/h 97% 0.0 mm 24 W/m2
07:48 2.7 °C 2.3 °C 1020.9 hPa NNW 11.1 km/h 14.8 km/h 97% 0.0 mm 34 W/m2
07:53 2.9 °C 2.5 °C 1021.2 hPa NNW 11.1 km/h 14.8 km/h 97% 0.0 mm 44 W/m2
07:58 3.0 °C 2.8 °C 1021.2 hPa NW 9.7 km/h 14.8 km/h 99% 0.0 mm 55 W/m2
08:03 3.1 °C 2.9 °C 1021.2 hPa NW 7.2 km/h 15.8 km/h 99% 0.0 mm 64 W/m2
08:08 3.3 °C 3.2 °C 1021.2 hPa NW 8.7 km/h 15.8 km/h 99% 0.0 mm 77 W/m2
08:13 3.5 °C 3.3 °C 1021.2 hPa NW 9.7 km/h 13.4 km/h 99% 0.0 mm 87 W/m2
08:18 3.6 °C 3.3 °C 1021.6 hPa NNW 11.1 km/h 14.8 km/h 98% 0.0 mm 84 W/m2
08:23 3.8 °C 3.5 °C 1021.6 hPa NW 12.2 km/h 15.8 km/h 98% 0.0 mm 104 W/m2
08:28 3.8 °C 3.4 °C 1021.6 hPa NW 8.7 km/h 15.8 km/h 97% 0.0 mm 80 W/m2
08:33 4.0 °C 3.3 °C 1021.6 hPa NNW 9.7 km/h 15.8 km/h 95% 0.0 mm 101 W/m2
08:38 4.2 °C 3.5 °C 1021.6 hPa NNW 12.2 km/h 15.8 km/h 95% 0.0 mm 52 W/m2
08:43 4.1 °C 3.4 °C 1021.6 hPa NW 8.7 km/h 15.8 km/h 95% 0.0 mm 36 W/m2
08:48 4.1 °C 3.4 °C 1021.6 hPa NW 9.7 km/h 15.8 km/h 95% 0.0 mm 62 W/m2
08:53 4.3 °C 3.6 °C 1021.9 hPa NNW 11.1 km/h 14.8 km/h 95% 0.0 mm 145 W/m2
08:58 4.9 °C 4.2 °C 1022.2 hPa NNW 9.7 km/h 14.8 km/h 95% 0.0 mm 150 W/m2
09:03 5.3 °C 4.3 °C 1022.2 hPa NW 8.7 km/h 17.2 km/h 93% 0.0 mm 164 W/m2
09:08 5.7 °C 4.5 °C 1022.2 hPa NW 7.2 km/h 17.2 km/h 92% 0.0 mm 179 W/m2
09:13 6.0 °C 4.5 °C 1022.2 hPa NW 9.7 km/h 13.4 km/h 90% 0.0 mm 180 W/m2
09:18 6.4 °C 4.7 °C 1022.2 hPa NNW 3.5 km/h 13.4 km/h 89% 0.0 mm 152 W/m2
09:23 6.7 °C 4.7 °C 1022.2 hPa North 7.2 km/h 14.8 km/h 87% 0.0 mm 153 W/m2
09:28 6.7 °C 4.5 °C 1022.6 hPa North 6.1 km/h 14.8 km/h 86% 0.0 mm 138 W/m2
09:33 6.9 °C 4.7 °C 1022.6 hPa NNW 6.1 km/h 13.4 km/h 86% 0.0 mm 194 W/m2
09:38 7.2 °C 4.8 °C 1022.6 hPa NW 8.7 km/h 12.2 km/h 85% 0.0 mm 184 W/m2
09:43 7.3 °C 4.8 °C 1022.6 hPa NNW 11.1 km/h 13.4 km/h 84% 0.0 mm 196 W/m2
09:48 7.4 °C 4.9 °C 1022.9 hPa NNW 7.2 km/h 13.4 km/h 84% 0.0 mm 159 W/m2
09:53 7.6 °C 5.1 °C 1022.9 hPa NNW 8.7 km/h 17.2 km/h 84% 0.0 mm 122 W/m2
09:54 7.6 °C 5.1 °C 1022.9 hPa NNW 8.7 km/h 17.2 km/h 84% 0.0 mm 109 W/m2
09:59 8.1 °C 5.7 °C 1022.9 hPa NNW 6.1 km/h 17.2 km/h 85% 0.0 mm 117 W/m2
10:04 8.6 °C 6.2 °C 1023.2 hPa NNW 9.7 km/h 13.4 km/h 85% 0.0 mm 129 W/m2
10:09 8.9 °C 6.3 °C 1023.2 hPa NNW 9.7 km/h 14.8 km/h 84% 0.0 mm 125 W/m2
10:14 8.6 °C 5.9 °C 1023.2 hPa North 11.1 km/h 15.8 km/h 83% 0.0 mm 140 W/m2
10:19 8.5 °C 5.9 °C 1023.2 hPa NNW 9.7 km/h 15.8 km/h 84% 0.0 mm 100 W/m2
10:24 8.5 °C 6.1 °C 1023.2 hPa NNW 8.7 km/h 14.8 km/h 85% 0.0 mm 82 W/m2
10:29 8.5 °C 6.3 °C 1023.2 hPa NNW 5.0 km/h 12.2 km/h 86% 0.0 mm 104 W/m2
10:34 8.8 °C 6.6 °C 1023.2 hPa NNW 5.0 km/h 11.1 km/h 86% 0.0 mm 83 W/m2
10:39 8.8 °C 6.6 °C 1023.2 hPa NNW 2.6 km/h 9.7 km/h 86% 0.0 mm 73 W/m2
10:44 9.0 °C 6.6 °C 1023.2 hPa NNW 3.5 km/h 9.7 km/h 85% 0.0 mm 98 W/m2
10:49 9.1 °C 6.9 °C 1023.2 hPa NNW 6.1 km/h 12.2 km/h 86% 0.0 mm 116 W/m2
10:54 9.4 °C 7.2 °C 1023.2 hPa NNW 2.6 km/h 12.2 km/h 86% 0.0 mm 125 W/m2
10:59 9.8 °C 7.4 °C 1023.2 hPa NNW 3.5 km/h 11.1 km/h 85% 0.0 mm 94 W/m2
11:05 10.2 °C 7.6 °C 1023.2 hPa North 1.1 km/h 8.7 km/h 84% 0.0 mm 106 W/m2
11:10 10.5 °C 7.7 °C 1023.2 hPa NNE 3.5 km/h 6.1 km/h 83% 0.0 mm 119 W/m2
11:15 10.8 °C 8.1 °C 1023.2 hPa North 3.5 km/h 7.2 km/h 83% 0.0 mm 137 W/m2
11:20 11.9 °C 8.9 °C 1023.2 hPa NNW 6.1 km/h 9.7 km/h 82% 0.0 mm 130 W/m2
11:25 12.5 °C 8.8 °C 1023.6 hPa NNW 5.0 km/h 9.7 km/h 78% 0.0 mm 165 W/m2
11:30 13.1 °C 8.9 °C 1023.6 hPa NNW 3.5 km/h 9.7 km/h 76% 0.0 mm 125 W/m2
11:35 12.6 °C 8.3 °C 1023.6 hPa NNW 7.2 km/h 9.7 km/h 75% 0.0 mm 99 W/m2
11:40 12.3 °C 8.4 °C 1023.6 hPa NW 1.1 km/h 9.7 km/h 77% 0.0 mm 116 W/m2
11:46 12.4 °C 8.7 °C 1023.2 hPa NNW 5.0 km/h 7.2 km/h 78% 0.0 mm 127 W/m2
11:51 12.8 °C 9.1 °C 1023.2 hPa NNW 3.5 km/h 7.2 km/h 78% 0.0 mm 141 W/m2
11:56 13.1 °C 9.3 °C 1023.2 hPa Calm   6.1 km/h 78% 0.0 mm 151 W/m2
12:01 14.1 °C 10.1 °C 1023.2 hPa NNW 2.6 km/h 6.1 km/h 77% 0.0 mm 104 W/m2
12:06 13.7 °C 9.9 °C 1023.2 hPa WSW 1.1 km/h 11.1 km/h 78% 0.0 mm 127 W/m2
12:11 14.1 °C 10.7 °C 1022.9 hPa SW 5.0 km/h 15.8 km/h 80% 0.0 mm 128 W/m2
12:16 14.8 °C 11.2 °C 1022.9 hPa WSW 12.2 km/h 15.8 km/h 79% 0.0 mm 102 W/m2
12:21 15.1 °C 10.7 °C 1023.2 hPa WSW 11.1 km/h 17.2 km/h 75% 0.0 mm 90 W/m2
12:26 14.9 °C 10.5 °C 1023.2 hPa WSW 11.1 km/h 27.0 km/h 75% 0.0 mm 87 W/m2
12:31 14.8 °C 10.4 °C 1023.2 hPa WSW 13.4 km/h 27.0 km/h 75% 0.0 mm 83 W/m2
12:36 14.8 °C 10.4 °C 1022.9 hPa SW 12.2 km/h 23.3 km/h 75% 0.0 mm 76 W/m2
12:41 15.1 °C 10.5 °C 1022.9 hPa WSW 13.4 km/h 23.3 km/h 74% 0.0 mm 75 W/m2
12:46 15.2 °C 10.6 °C 1022.9 hPa West 8.7 km/h 20.9 km/h 74% 0.0 mm 74 W/m2
12:51 15.2 °C 10.4 °C 1022.9 hPa WSW 7.2 km/h 19.5 km/h 73% 0.0 mm 74 W/m2
12:56 15.0 °C 10.2 °C 1022.9 hPa SW 14.8 km/h 20.9 km/h 73% 0.0 mm 75 W/m2
13:01 15.0 °C 10.2 °C 1022.9 hPa SW 8.7 km/h 20.9 km/h 73% 0.0 mm 76 W/m2
13:06 15.0 °C 10.0 °C 1022.9 hPa SW 11.1 km/h 20.9 km/h 72% 0.0 mm 76 W/m2
13:11 15.0 °C 10.2 °C 1022.9 hPa SW 11.1 km/h 20.9 km/h 73% 0.0 mm 77 W/m2
13:16 15.2 °C 10.2 °C 1022.9 hPa SW 8.7 km/h 18.3 km/h 72% 0.0 mm 78 W/m2
13:21 15.2 °C 10.0 °C 1022.9 hPa WSW 9.7 km/h 19.5 km/h 71% 0.0 mm 80 W/m2
13:26 15.2 °C 10.0 °C 1022.9 hPa WSW 11.1 km/h 19.5 km/h 71% 0.0 mm 82 W/m2
13:31 15.2 °C 10.0 °C 1022.9 hPa SW 9.7 km/h 19.5 km/h 71% 0.0 mm 82 W/m2
13:36 15.0 °C 10.0 °C 1022.9 hPa WSW 11.1 km/h 19.5 km/h 72% 0.0 mm 82 W/m2
13:41 15.0 °C 10.0 °C 1022.9 hPa West 6.1 km/h 19.5 km/h 72% 0.0 mm 84 W/m2
13:46 15.2 °C 10.2 °C 1022.9 hPa West 12.2 km/h 20.9 km/h 72% 0.0 mm 93 W/m2
13:51 15.4 °C 10.6 °C 1022.9 hPa SW 9.7 km/h 20.9 km/h 73% 0.0 mm 127 W/m2
13:56 15.3 °C 10.3 °C 1022.9 hPa SW 9.7 km/h 18.3 km/h 72% 0.0 mm 78 W/m2
14:01 14.6 °C 10.0 °C 1022.9 hPa WSW 14.8 km/h 18.3 km/h 74% 0.0 mm 224 W/m2
14:06 14.6 °C 10.0 °C 1022.9 hPa SW 11.1 km/h 18.3 km/h 74% 0.0 mm 225 W/m2
14:11 14.9 °C 10.3 °C 1022.9 hPa SW 7.2 km/h 18.3 km/h 74% 0.0 mm 185 W/m2
14:16 14.8 °C 10.2 °C 1022.9 hPa SW 7.2 km/h 18.3 km/h 74% 0.0 mm 220 W/m2
14:21 14.9 °C 10.3 °C 1022.9 hPa SW 11.1 km/h 17.2 km/h 74% 0.0 mm 226 W/m2
14:26 14.8 °C 10.2 °C 1022.9 hPa SW 8.7 km/h 17.2 km/h 74% 0.0 mm 222 W/m2
14:31 15.3 °C 10.5 °C 1023.2 hPa SW 7.2 km/h 18.3 km/h 73% 0.0 mm 222 W/m2
14:36 15.2 °C 10.2 °C 1023.2 hPa SW 12.2 km/h 18.3 km/h 72% 0.0 mm 218 W/m2
14:41 15.2 °C 10.2 °C 1023.2 hPa SW 6.1 km/h 18.3 km/h 72% 0.0 mm 216 W/m2
14:46 15.3 °C 9.9 °C 1023.2 hPa WSW 7.2 km/h 15.8 km/h 70% 0.0 mm 200 W/m2
14:51 15.2 °C 9.8 °C 1023.2 hPa WSW 6.1 km/h 15.8 km/h 70% 0.0 mm 204 W/m2
14:56 15.3 °C 10.1 °C 1023.2 hPa SW 8.7 km/h 14.8 km/h 71% 0.0 mm 193 W/m2
15:01 15.3 °C 10.1 °C 1023.2 hPa SSW 8.7 km/h 14.8 km/h 71% 0.0 mm 184 W/m2
15:06 15.2 °C 10.2 °C 1023.2 hPa SSW 11.1 km/h 14.8 km/h 72% 0.0 mm 174 W/m2
15:11 15.4 °C 10.4 °C 1023.2 hPa SSW 7.2 km/h 13.4 km/h 72% 0.0 mm 148 W/m2
15:16 15.4 °C 10.4 °C 1023.2 hPa SW 7.2 km/h 11.1 km/h 72% 0.0 mm 139 W/m2
15:21 15.3 °C 10.3 °C 1023.2 hPa SW 7.2 km/h 11.1 km/h 72% 0.0 mm 94 W/m2
15:26 15.0 °C 10.0 °C 1023.2 hPa SSW 7.2 km/h 11.1 km/h 72% 0.0 mm 89 W/m2
15:31 14.6 °C 10.0 °C 1023.2 hPa SSW 7.2 km/h 12.2 km/h 74% 0.0 mm 42 W/m2
15:36 13.8 °C 9.7 °C 1023.2 hPa SW 5.0 km/h 12.2 km/h 76% 0.0 mm 33 W/m2
15:41 13.5 °C 9.7 °C 1023.6 hPa SSW 3.5 km/h 9.7 km/h 78% 0.0 mm 35 W/m2
15:46 13.3 °C 9.7 °C 1023.6 hPa SSW 3.5 km/h 7.2 km/h 79% 0.0 mm 32 W/m2
15:51 13.1 °C 9.7 °C 1023.2 hPa SSW 2.6 km/h 7.2 km/h 80% 0.0 mm 30 W/m2
15:56 13.0 °C 9.8 °C 1023.2 hPa SSW 3.5 km/h 8.7 km/h 81% 0.0 mm 30 W/m2
16:01 12.9 °C 9.9 °C 1023.2 hPa SW 3.5 km/h 8.7 km/h 82% 0.0 mm 30 W/m2
16:06 12.9 °C 9.9 °C 1023.6 hPa SW 6.1 km/h 8.7 km/h 82% 0.0 mm 29 W/m2
16:11 12.7 °C 9.9 °C 1023.6 hPa SSW 5.0 km/h 7.2 km/h 83% 0.0 mm 25 W/m2
16:16 12.7 °C 9.9 °C 1023.2 hPa SSW 3.5 km/h 7.2 km/h 83% 0.0 mm 22 W/m2
16:21 12.7 °C 9.9 °C 1023.2 hPa SSW 3.5 km/h 7.2 km/h 83% 0.0 mm 12 W/m2
16:26 12.8 °C 10.2 °C 1023.2 hPa South 2.6 km/h 7.2 km/h 84% 0.0 mm 9 W/m2
16:31 12.7 °C 10.1 °C 1023.2 hPa SSW 2.6 km/h 7.2 km/h 84% 0.0 mm 5 W/m2
16:36 12.6 °C 9.9 °C 1023.2 hPa SW 1.1 km/h 5.0 km/h 84% 0.0 mm 3 W/m2
16:41 12.4 °C 9.8 °C 1023.2 hPa West 1.1 km/h 5.0 km/h 84% 0.0 mm 1 W/m2
16:46 12.3 °C 9.8 °C 1023.6 hPa Calm   2.6 km/h 85% 0.0 mm 0 W/m2
16:51 12.1 °C 9.7 °C 1023.6 hPa West 1.1 km/h 2.6 km/h 85% 0.0 mm 0 W/m2
16:56 12.1 °C 9.8 °C 1023.6 hPa Calm   2.6 km/h 86% 0.0 mm 0 W/m2
17:01 12.1 °C 9.8 °C 1023.6 hPa Calm   2.6 km/h 86% 0.0 mm 0 W/m2
17:06 12.1 °C 9.8 °C 1023.6 hPa Calm   2.6 km/h 86% 0.0 mm 0 W/m2
17:11 12.1 °C 9.8 °C 1023.6 hPa NW 1.1 km/h 2.6 km/h 86% 0.0 mm 0 W/m2
17:16 12.1 °C 9.8 °C 1023.9 hPa NNW 1.1 km/h 2.6 km/h 86% 0.0 mm 0 W/m2
17:21 12.1 °C 9.8 °C 1023.9 hPa NNW 2.6 km/h 5.0 km/h 86% 0.0 mm 0 W/m2
17:26 11.9 °C 9.8 °C 1023.9 hPa NNW 3.5 km/h 5.0 km/h 87% 0.0 mm 0 W/m2
17:31 11.9 °C 9.8 °C 1023.9 hPa NNW 3.5 km/h 7.2 km/h 87% 0.0 mm 0 W/m2
17:36 11.8 °C 9.7 °C 1023.9 hPa NNW 2.6 km/h 7.2 km/h 87% 0.0 mm 0 W/m2
17:41 11.7 °C 9.6 °C 1024.3 hPa North 1.1 km/h 7.2 km/h 87% 0.0 mm 0 W/m2
17:46 11.7 °C 9.6 °C 1024.3 hPa North 3.5 km/h 6.1 km/h 87% 0.0 mm 0 W/m2
17:51 11.7 °C 9.8 °C 1024.3 hPa NW 3.5 km/h 6.1 km/h 88% 0.0 mm 0 W/m2
17:56 11.7 °C 9.8 °C 1024.3 hPa NW 5.0 km/h 8.7 km/h 88% 0.0 mm 0 W/m2
18:01 11.6 °C 9.8 °C 1024.3 hPa NNW 5.0 km/h 8.7 km/h 89% 0.0 mm 0 W/m2
18:06 11.4 °C 10.0 °C 1024.3 hPa NW 2.6 km/h 7.2 km/h 91% 0.0 mm 0 W/m2
18:11 11.3 °C 10.1 °C 1024.3 hPa NNW 1.1 km/h 7.2 km/h 92% 0.0 mm 0 W/m2
18:16 11.2 °C 10.1 °C 1024.6 hPa North 1.1 km/h 7.2 km/h 93% 0.0 mm 0 W/m2
18:21 11.2 °C 10.3 °C 1024.6 hPa NNE 3.5 km/h 6.1 km/h 94% 0.0 mm 0 W/m2
18:26 11.2 °C 10.3 °C 1024.3 hPa North 2.6 km/h 6.1 km/h 94% 0.0 mm 0 W/m2
18:31 11.2 °C 10.4 °C 1024.6 hPa NW 5.0 km/h 7.2 km/h 95% 0.0 mm 0 W/m2
18:36 11.2 °C 10.6 °C 1024.6 hPa NW 5.0 km/h 7.2 km/h 96% 0.0 mm 0 W/m2
18:41 11.2 °C 10.6 °C 1024.6 hPa NW 6.1 km/h 8.7 km/h 96% 0.0 mm 0 W/m2
18:46 11.2 °C 10.6 °C 1024.9 hPa NW 7.2 km/h 9.7 km/h 96% 0.0 mm 0 W/m2
18:51 11.2 °C 10.6 °C 1024.6 hPa WNW 5.0 km/h 11.1 km/h 96% 0.0 mm 0 W/m2
18:56 11.0 °C 10.6 °C 1024.6 hPa WNW 6.1 km/h 12.2 km/h 97% 0.0 mm 0 W/m2
19:01 10.9 °C 10.6 °C 1024.9 hPa NW 5.0 km/h 12.2 km/h 98% 0.0 mm 0 W/m2
19:06 10.8 °C 10.7 °C 1024.9 hPa NW 1.1 km/h 9.7 km/h 99% 0.0 mm 0 W/m2
19:11 10.8 °C 10.7 °C 1024.9 hPa NW 2.6 km/h 7.2 km/h 99% 0.0 mm 0 W/m2
19:16 10.8 °C 10.7 °C 1024.9 hPa North 5.0 km/h 7.2 km/h 99% 0.0 mm 0 W/m2
19:21 10.8 °C 10.7 °C 1024.9 hPa North 5.0 km/h 9.7 km/h 99% 0.0 mm 0 W/m2
19:26 10.7 °C 10.6 °C 1024.9 hPa North 2.6 km/h 9.7 km/h 99% 0.0 mm 0 W/m2
19:31 10.6 °C 10.4 °C 1024.9 hPa NNW 1.1 km/h 7.2 km/h 99% 0.0 mm 0 W/m2
19:36 10.6 °C 10.4 °C 1024.9 hPa NW 5.0 km/h 8.7 km/h 99% 0.3 mm 0 W/m2
19:41 10.6 °C 10.4 °C 1025.3 hPa NW 5.0 km/h 8.7 km/h 99% 0.3 mm 0 W/m2
19:46 10.5 °C 10.3 °C 1025.3 hPa NW 3.5 km/h 7.2 km/h 99% 0.3 mm 0 W/m2
19:51 10.5 °C 10.3 °C 1024.9 hPa NW 3.5 km/h 6.1 km/h 99% 0.3 mm 0 W/m2
19:57 10.5 °C 10.3 °C 1025.3 hPa NNW 2.6 km/h 6.1 km/h 99% 0.3 mm 0 W/m2
20:02 10.5 °C 10.3 °C 1025.3 hPa North 6.1 km/h 7.2 km/h 99% 0.3 mm 0 W/m2
20:07 10.5 °C 10.3 °C 1025.3 hPa NNW 3.5 km/h 7.2 km/h 99% 0.3 mm 0 W/m2
20:12 10.4 °C 10.3 °C 1025.3 hPa North 5.0 km/h 7.2 km/h 99% 0.3 mm 0 W/m2
20:17 10.4 °C 10.3 °C 1025.3 hPa NNW 3.5 km/h 7.2 km/h 99% 0.3 mm 0 W/m2
20:22 10.4 °C 10.3 °C 1025.3 hPa NNW 2.6 km/h 7.2 km/h 99% 0.3 mm 0 W/m2
20:27 10.4 °C 10.3 °C 1025.6 hPa NNW 2.6 km/h 6.1 km/h 99% 0.3 mm 0 W/m2
20:32 10.4 °C 10.3 °C 1025.6 hPa North 2.6 km/h 6.1 km/h 99% 0.3 mm 0 W/m2
20:37 10.4 °C 10.3 °C 1025.3 hPa NNE 2.6 km/h 6.1 km/h 99% 0.0 mm 0 W/m2
20:42 10.4 °C 10.3 °C 1025.6 hPa NE 2.6 km/h 6.1 km/h 99% 0.0 mm 0 W/m2
20:47 10.3 °C 10.2 °C 1025.6 hPa NNE 3.5 km/h 7.2 km/h 99% 0.0 mm 0 W/m2
20:52 10.3 °C 10.2 °C 1025.6 hPa North 2.6 km/h 7.2 km/h 99% 0.0 mm 0 W/m2
20:57 10.3 °C 10.2 °C 1025.6 hPa North 2.6 km/h 7.2 km/h 99% 0.0 mm 0 W/m2
21:02 10.3 °C 10.2 °C 1026.0 hPa North 2.6 km/h 7.2 km/h 99% 0.0 mm 0 W/m2
21:19 10.3 °C 10.2 °C 1026.0 hPa North 2.6 km/h 6.1 km/h 99% 0.0 mm 0 W/m2
21:25 10.3 °C 10.2 °C 1026.0 hPa North 2.6 km/h 5.0 km/h 99% 0.0 mm 0 W/m2
21:30 10.2 °C 10.1 °C 1026.0 hPa NNW 1.1 km/h 5.0 km/h 99% 0.0 mm 0 W/m2
21:35 10.2 °C 10.1 °C 1026.0 hPa NNW 1.1 km/h 5.0 km/h 99% 0.0 mm 0 W/m2
21:40 10.2 °C 10.1 °C 1026.0 hPa North 2.6 km/h 3.5 km/h 99% 0.0 mm 0 W/m2
21:45 10.2 °C 10.1 °C 1026.0 hPa NNW 2.6 km/h 3.5 km/h 99% 0.0 mm 0 W/m2
21:50 10.2 °C 10.1 °C 1026.0 hPa NW 3.5 km/h 5.0 km/h 99% 0.0 mm 0 W/m2
21:55 10.1 °C 9.9 °C 1026.3 hPa NNW 2.6 km/h 5.0 km/h 99% 0.0 mm 0 W/m2
22:00 10.1 °C 9.9 °C 1026.0 hPa Calm   5.0 km/h 99% 0.0 mm 0 W/m2
22:05 10.1 °C 9.9 °C 1026.0 hPa North 1.1 km/h 3.5 km/h 99% 0.0 mm 0 W/m2
22:10 10.1 °C 9.9 °C 1026.3 hPa NW 1.1 km/h 5.0 km/h 99% 0.0 mm 0 W/m2
22:15 10.1 °C 9.9 °C 1026.3 hPa WNW 2.6 km/h 5.0 km/h 99% 0.0 mm 0 W/m2
22:20 10.1 °C 9.9 °C 1026.3 hPa WNW 2.6 km/h 5.0 km/h 99% 0.0 mm 0 W/m2
22:25 10.1 °C 9.9 °C 1026.3 hPa NW 2.6 km/h 5.0 km/h 99% 0.0 mm 0 W/m2
22:30 10.0 °C 9.8 °C 1026.0 hPa NW 1.1 km/h 5.0 km/h 99% 0.0 mm 0 W/m2
22:35 10.0 °C 9.8 °C 1026.3 hPa NW 2.6 km/h 5.0 km/h 99% 0.0 mm 0 W/m2
22:40 10.0 °C 9.8 °C 1026.3 hPa NW 1.1 km/h 3.5 km/h 99% 0.0 mm 0 W/m2
22:45 10.0 °C 9.8 °C 1026.3 hPa NW 2.6 km/h 3.5 km/h 99% 0.0 mm 0 W/m2
22:50 9.9 °C 9.8 °C 1026.6 hPa NNW 1.1 km/h 3.5 km/h 99% 0.0 mm 0 W/m2
22:55 9.9 °C 9.8 °C 1026.6 hPa NNW 2.6 km/h 3.5 km/h 99% 0.0 mm 0 W/m2
23:00 9.9 °C 9.8 °C 1026.6 hPa NNW 2.6 km/h 5.0 km/h 99% 0.0 mm 0 W/m2
23:05 9.9 °C 9.8 °C 1026.6 hPa NNW 1.1 km/h 5.0 km/h 99% 0.0 mm 0 W/m2
23:10 9.9 °C 9.8 °C 1026.6 hPa NNW 2.6 km/h 5.0 km/h 99% 0.0 mm 0 W/m2
23:15 9.8 °C 9.7 °C 1026.6 hPa Calm   3.5 km/h 99% 0.0 mm 0 W/m2
23:20 9.8 °C 9.7 °C 1026.6 hPa Calm   3.5 km/h 99% 0.0 mm 0 W/m2
23:25 9.8 °C 9.7 °C 1026.6 hPa NW 1.1 km/h 2.6 km/h 99% 0.0 mm 0 W/m2
23:27 9.8 °C 9.7 °C 1026.6 hPa NNW 1.1 km/h 2.6 km/h 99% 0.0 mm 0 W/m2
23:32 9.8 °C 9.7 °C 1026.6 hPa North 1.1 km/h 3.5 km/h 99% 0.0 mm 0 W/m2
23:37 9.7 °C 9.6 °C 1026.6 hPa North 1.1 km/h 3.5 km/h 99% 0.0 mm 0 W/m2
23:42 9.7 °C 9.6 °C 1026.6 hPa NNW 1.1 km/h 3.5 km/h 99% 0.0 mm 0 W/m2
23:47 9.6 °C 9.4 °C 1026.6 hPa NW 1.1 km/h 3.5 km/h 99% 0.0 mm 0 W/m2
23:52 9.5 °C 9.3 °C 1026.6 hPa NW 1.1 km/h 3.5 km/h 99% 0.0 mm 0 W/m2
23:57 9.4 °C 9.3 °C 1026.6 hPa NW 2.6 km/h 3.5 km/h 99% 0.0 mm 0 W/m2
Northern Hawkes Bay. New Zealand Historic Data
Compliments of Weather Underground - 2 mb